createdAt,value
2023-02-05T00:00:46.960Z, 35.28
2023-02-05T00:01:46.984Z, 35.26
2023-02-05T00:02:46.977Z, 35.23
2023-02-05T00:03:47.143Z, 35.20
2023-02-05T00:04:47.055Z, 35.19
2023-02-05T00:05:47.017Z, 35.27
2023-02-05T00:06:47.051Z, 35.20
2023-02-05T00:07:47.199Z, 35.18
2023-02-05T00:08:47.202Z, 35.15
2023-02-05T00:09:47.197Z, 35.14
2023-02-05T00:10:47.202Z, 35.14
2023-02-05T00:11:47.195Z, 35.11
2023-02-05T00:12:47.194Z, 35.06
2023-02-05T00:13:47.199Z, 35.01
2023-02-05T00:14:47.377Z, 35.03
2023-02-05T00:15:47.378Z, 35.05
2023-02-05T00:16:47.241Z, 35.03
2023-02-05T00:17:47.223Z, 35.03
2023-02-05T00:18:47.229Z, 35.00
2023-02-05T00:19:47.232Z, 35.02
2023-02-05T00:20:47.375Z, 35.02
2023-02-05T00:21:49.565Z, 34.96
2023-02-05T00:22:47.375Z, 34.92
2023-02-05T00:23:47.387Z, 34.91
2023-02-05T00:24:47.380Z, 34.87
2023-02-05T00:25:47.374Z, 34.88
2023-02-05T00:26:47.380Z, 34.88
2023-02-05T00:27:47.417Z, 34.87
2023-02-05T00:28:47.376Z, 34.85
2023-02-05T00:29:47.384Z, 34.84
2023-02-05T00:30:47.618Z, 34.85
2023-02-05T00:31:47.518Z, 34.87
2023-02-05T00:32:47.404Z, 34.84
2023-02-05T00:33:47.412Z, 34.80
2023-02-05T00:34:47.554Z, 34.78
2023-02-05T00:35:47.556Z, 34.74
2023-02-05T00:36:47.563Z, 34.71
2023-02-05T00:37:47.556Z, 34.66
2023-02-05T00:38:47.561Z, 34.64
2023-02-05T00:39:47.595Z, 34.66
2023-02-05T00:40:47.572Z, 34.68
2023-02-05T00:41:47.562Z, 34.62
2023-02-05T00:42:47.569Z, 34.62
2023-02-05T00:43:47.559Z, 34.61
2023-02-05T00:44:47.563Z, 34.57
2023-02-05T00:45:47.633Z, 34.61
2023-02-05T00:46:47.740Z, 34.58
2023-02-05T00:47:47.576Z, 34.56
2023-02-05T00:48:47.738Z, 34.51
2023-02-05T00:49:47.739Z, 34.50
2023-02-05T00:50:47.742Z, 34.48
2023-02-05T00:51:47.742Z, 34.46
2023-02-05T00:52:47.749Z, 34.44
2023-02-05T00:53:47.742Z, 34.45
2023-02-05T00:54:47.748Z, 34.46
2023-02-05T00:55:47.738Z, 34.47
2023-02-05T00:56:47.744Z, 34.45
2023-02-05T00:57:47.745Z, 34.48
2023-02-05T00:58:47.826Z, 34.46
2023-02-05T00:59:47.750Z, 34.40
2023-02-05T01:00:47.768Z, 34.35
2023-02-05T01:01:47.819Z, 34.35
2023-02-05T01:02:47.843Z, 34.30
2023-02-05T01:03:47.748Z, 34.28
2023-02-05T01:04:47.754Z, 34.30
2023-02-05T01:05:47.754Z, 34.26
2023-02-05T01:06:47.749Z, 34.24
2023-02-05T01:07:47.780Z, 34.25
2023-02-05T01:08:47.786Z, 34.23
2023-02-05T01:09:47.923Z, 34.19
2023-02-05T01:10:47.926Z, 34.20
2023-02-05T01:11:47.932Z, 34.16
2023-02-05T01:12:47.920Z, 34.16
2023-02-05T01:13:47.935Z, 34.16
2023-02-05T01:14:47.944Z, 34.15
2023-02-05T01:15:47.977Z, 34.12
2023-02-05T01:16:47.962Z, 34.14
2023-02-05T01:17:47.962Z, 34.12
2023-02-05T01:18:48.100Z, 34.09
2023-02-05T01:19:48.108Z, 34.00
2023-02-05T01:20:48.101Z, 34.01
2023-02-05T01:21:48.112Z, 34.05
2023-02-05T01:22:48.114Z, 34.08
2023-02-05T01:23:48.115Z, 33.99
2023-02-05T01:24:48.113Z, 33.98
2023-02-05T01:25:48.114Z, 34.00
2023-02-05T01:26:48.116Z, 34.01
2023-02-05T01:27:48.132Z, 33.98
2023-02-05T01:28:48.120Z, 34.00
2023-02-05T01:29:48.115Z, 33.94
2023-02-05T01:30:48.234Z, 33.89
2023-02-05T01:31:48.226Z, 33.87
2023-02-05T01:32:48.128Z, 33.88
2023-02-05T01:33:48.158Z, 33.86
2023-02-05T01:34:48.149Z, 33.86
2023-02-05T01:35:48.146Z, 33.84
2023-02-05T01:36:48.156Z, 33.83
2023-02-05T01:37:48.295Z, 33.80
2023-02-05T01:38:48.151Z, 33.78
2023-02-05T01:39:48.294Z, 33.81
2023-02-05T01:40:48.147Z, 33.79
2023-02-05T01:41:48.287Z, 33.77
2023-02-05T01:42:48.305Z, 33.74
2023-02-05T01:43:48.290Z, 33.72
2023-02-05T01:44:48.291Z, 33.73
2023-02-05T01:45:48.297Z, 33.72
2023-02-05T01:46:48.329Z, 33.71
2023-02-05T01:47:48.289Z, 33.73
2023-02-05T01:48:48.295Z, 33.71
2023-02-05T01:49:48.365Z, 33.70
2023-02-05T01:50:48.344Z, 33.68
2023-02-05T01:51:48.376Z, 33.67
2023-02-05T01:52:48.365Z, 33.68
2023-02-05T01:53:48.367Z, 33.67
2023-02-05T01:54:48.360Z, 33.67
2023-02-05T01:55:48.356Z, 33.62
2023-02-05T01:56:48.360Z, 33.57
2023-02-05T01:57:48.355Z, 33.54
2023-02-05T01:58:48.369Z, 33.54
2023-02-05T01:59:48.378Z, 33.56
2023-02-05T02:00:48.366Z, 33.51
2023-02-05T02:01:48.469Z, 33.54
2023-02-05T02:02:48.366Z, 33.55
2023-02-05T02:03:48.359Z, 33.54
2023-02-05T02:04:48.377Z, 33.50
2023-02-05T02:05:48.364Z, 33.45
2023-02-05T02:06:48.377Z, 33.42
2023-02-05T02:07:48.379Z, 33.43
2023-02-05T02:08:48.416Z, 33.40
2023-02-05T02:09:48.407Z, 33.43
2023-02-05T02:10:48.462Z, 33.42
2023-02-05T02:11:48.475Z, 33.38
2023-02-05T02:12:48.488Z, 33.40
2023-02-05T02:13:48.489Z, 33.38
2023-02-05T02:14:48.532Z, 33.36
2023-02-05T02:15:48.530Z, 33.35
2023-02-05T02:16:48.488Z, 33.36
2023-02-05T02:17:48.539Z, 33.33
2023-02-05T02:18:48.553Z, 33.33
2023-02-05T02:19:48.524Z, 33.28
2023-02-05T02:20:48.516Z, 33.27
2023-02-05T02:21:48.513Z, 33.30
2023-02-05T02:22:48.525Z, 33.26
2023-02-05T02:23:48.524Z, 33.27
2023-02-05T02:24:48.547Z, 33.25
2023-02-05T02:25:48.547Z, 33.25
2023-02-05T02:26:48.620Z, 33.18
2023-02-05T02:27:48.608Z, 33.20
2023-02-05T02:28:48.600Z, 33.20
2023-02-05T02:29:48.624Z, 33.17
2023-02-05T02:30:48.690Z, 33.12
2023-02-05T02:31:48.656Z, 33.13
2023-02-05T02:32:48.662Z, 33.14
2023-02-05T02:33:48.754Z, 33.07
2023-02-05T02:34:48.727Z, 33.07
2023-02-05T02:35:48.814Z, 33.08
2023-02-05T02:36:48.753Z, 33.05
2023-02-05T02:37:48.843Z, 33.08
2023-02-05T02:38:48.816Z, 33.05
2023-02-05T02:39:48.802Z, 33.02
2023-02-05T02:40:48.806Z, 33.04
2023-02-05T02:41:48.896Z, 33.01
2023-02-05T02:42:48.872Z, 33.00
2023-02-05T02:43:48.900Z, 33.00
2023-02-05T02:44:49.061Z, 32.99
2023-02-05T02:45:48.991Z, 33.00
2023-02-05T02:46:49.080Z, 32.97
2023-02-05T02:47:48.993Z, 32.90
2023-02-05T02:48:48.999Z, 32.85
2023-02-05T02:49:49.009Z, 32.86
2023-02-05T02:50:49.012Z, 32.86
2023-02-05T02:51:48.992Z, 32.89
2023-02-05T02:52:49.107Z, 32.84
2023-02-05T02:53:49.049Z, 32.85
2023-02-05T02:54:49.051Z, 32.85
2023-02-05T02:55:49.077Z, 32.85
2023-02-05T02:56:49.068Z, 32.80
2023-02-05T02:57:49.107Z, 32.76
2023-02-05T02:58:49.131Z, 32.79
2023-02-05T02:59:49.093Z, 32.83
2023-02-05T03:00:49.112Z, 32.80
2023-02-05T03:01:53.646Z, 32.78
2023-02-05T03:02:49.157Z, 32.75
2023-02-05T03:03:49.236Z, 32.73
2023-02-05T03:04:49.206Z, 32.73
2023-02-05T03:05:49.260Z, 32.78
2023-02-05T03:06:49.202Z, 32.81
2023-02-05T03:07:49.254Z, 32.74
2023-02-05T03:08:49.187Z, 32.72
2023-02-05T03:09:49.241Z, 32.67
2023-02-05T03:10:49.266Z, 32.68
2023-02-05T03:11:49.230Z, 32.68
2023-02-05T03:12:49.267Z, 32.67
2023-02-05T03:13:49.310Z, 32.66
2023-02-05T03:14:49.251Z, 32.63
2023-02-05T03:15:49.246Z, 32.66
2023-02-05T03:16:49.291Z, 32.64
2023-02-05T03:17:49.264Z, 32.65
2023-02-05T03:18:49.283Z, 32.62
2023-02-05T03:19:49.288Z, 32.55
2023-02-05T03:20:49.285Z, 32.51
2023-02-05T03:21:49.374Z, 32.51
2023-02-05T03:22:49.410Z, 32.54
2023-02-05T03:23:49.378Z, 32.56
2023-02-05T03:24:49.381Z, 32.53
2023-02-05T03:25:49.380Z, 32.52
2023-02-05T03:26:49.375Z, 32.52
2023-02-05T03:27:49.461Z, 32.50
2023-02-05T03:28:49.415Z, 32.49
2023-02-05T03:29:49.407Z, 32.45
2023-02-05T03:30:49.468Z, 32.44
2023-02-05T03:31:49.493Z, 32.47
2023-02-05T03:32:49.412Z, 32.44
2023-02-05T03:33:49.427Z, 32.42
2023-02-05T03:34:49.428Z, 32.37
2023-02-05T03:35:49.449Z, 32.32
2023-02-05T03:36:49.454Z, 32.35
2023-02-05T03:37:49.460Z, 32.33
2023-02-05T03:38:49.474Z, 32.34
2023-02-05T03:39:49.484Z, 32.34
2023-02-05T03:40:49.505Z, 32.33
2023-02-05T03:41:49.510Z, 32.33
2023-02-05T03:42:49.521Z, 32.32
2023-02-05T03:43:49.522Z, 32.31
2023-02-05T03:44:49.536Z, 32.27
2023-02-05T03:45:49.632Z, 32.30
2023-02-05T03:46:49.567Z, 32.30
2023-02-05T03:47:49.574Z, 32.27
2023-02-05T03:48:49.584Z, 32.24
2023-02-05T03:49:49.587Z, 32.20
2023-02-05T03:50:49.588Z, 32.20
2023-02-05T03:51:49.643Z, 32.18
2023-02-05T03:52:49.643Z, 32.17
2023-02-05T03:53:49.664Z, 32.21
2023-02-05T03:54:49.694Z, 32.17
2023-02-05T03:55:49.681Z, 32.21
2023-02-05T03:56:49.689Z, 32.18
2023-02-05T03:57:49.739Z, 32.14
2023-02-05T03:58:49.728Z, 32.15
2023-02-05T03:59:49.767Z, 32.17
2023-02-05T04:00:49.783Z, 32.13
2023-02-05T04:01:49.774Z, 32.12
2023-02-05T04:02:49.823Z, 32.07
2023-02-05T04:03:49.843Z, 32.12
2023-02-05T04:04:49.862Z, 32.08
2023-02-05T04:05:49.881Z, 32.07
2023-02-05T04:06:49.858Z, 32.08
2023-02-05T04:07:49.866Z, 32.05
2023-02-05T04:08:49.906Z, 32.08
2023-02-05T04:09:49.951Z, 32.04
2023-02-05T04:10:49.936Z, 32.01
2023-02-05T04:11:49.924Z, 32.03
2023-02-05T04:12:49.965Z, 32.03
2023-02-05T04:13:49.969Z, 32.00
2023-02-05T04:14:49.980Z, 31.97
2023-02-05T04:15:50.001Z, 32.01
2023-02-05T04:16:49.976Z, 31.97
2023-02-05T04:17:50.024Z, 31.95
2023-02-05T04:18:50.026Z, 31.93
2023-02-05T04:19:50.034Z, 31.89
2023-02-05T04:20:50.013Z, 31.89
2023-02-05T04:21:50.016Z, 31.87
2023-02-05T04:22:50.058Z, 31.87
2023-02-05T04:23:50.105Z, 31.86
2023-02-05T04:24:50.070Z, 31.87
2023-02-05T04:25:50.066Z, 31.87
2023-02-05T04:26:50.086Z, 31.84
2023-02-05T04:27:50.216Z, 31.84
2023-02-05T04:28:50.084Z, 31.84
2023-02-05T04:29:50.080Z, 31.84
2023-02-05T04:30:50.164Z, 31.77
2023-02-05T04:31:50.129Z, 33.01
2023-02-05T04:32:50.107Z, 33.68
2023-02-05T04:33:50.128Z, 33.86
2023-02-05T04:34:50.160Z, 38.89
2023-02-05T04:35:50.160Z, 45.54
2023-02-05T04:36:50.188Z, 46.49
2023-02-05T04:37:50.173Z, 43.51
2023-02-05T04:38:50.231Z, 40.06
2023-02-05T04:39:50.238Z, 38.03
2023-02-05T04:40:50.212Z, 36.51
2023-02-05T04:41:50.225Z, 34.82
2023-02-05T04:42:50.235Z, 33.03
2023-02-05T04:43:50.225Z, 30.79
2023-02-05T04:44:50.270Z, 27.91
2023-02-05T04:45:50.299Z, 25.04
2023-02-05T04:46:50.306Z, 27.85
2023-02-05T04:47:50.459Z, 32.94
2023-02-05T04:48:50.470Z, 36.52
2023-02-05T04:49:50.454Z, 39.11
2023-02-05T04:50:50.455Z, 41.13
2023-02-05T04:51:50.478Z, 43.29
2023-02-05T04:52:50.463Z, 42.48
2023-02-05T04:53:50.475Z, 40.29
2023-02-05T04:54:50.464Z, 38.44
2023-02-05T04:55:55.326Z, 36.81
2023-02-05T04:56:50.466Z, 35.29
2023-02-05T04:57:52.582Z, 33.98
2023-02-05T04:58:50.466Z, 32.93
2023-02-05T04:59:50.485Z, 31.78
2023-02-05T05:00:50.554Z, 30.60
2023-02-05T05:01:50.524Z, 30.66
2023-02-05T05:02:50.497Z, 31.53
2023-02-05T05:03:50.511Z, 36.59
2023-02-05T05:04:50.548Z, 40.90
2023-02-05T05:05:50.554Z, 45.68
2023-02-05T05:06:50.587Z, 50.34
2023-02-05T05:07:50.609Z, 54.58
2023-02-05T05:08:50.553Z, 58.52
2023-02-05T05:09:52.326Z, 67.43
2023-02-05T05:10:50.586Z, 57.22
2023-02-05T05:11:50.571Z, 51.69
2023-02-05T05:12:50.604Z, 52.86
2023-02-05T05:13:50.601Z, 54.04
2023-02-05T05:14:50.654Z, 56.05
2023-02-05T05:15:50.693Z, 58.90
2023-02-05T05:16:50.665Z, 65.60
2023-02-05T05:17:50.640Z, 61.29
2023-02-05T05:18:50.719Z, 52.72
2023-02-05T05:19:50.680Z, 53.78
2023-02-05T05:20:50.694Z, 55.06
2023-02-05T05:21:50.677Z, 57.14
2023-02-05T05:22:50.673Z, 59.76
2023-02-05T05:23:50.674Z, 63.12
2023-02-05T05:24:50.767Z, 57.28
2023-02-05T05:25:50.763Z, 56.60
2023-02-05T05:26:50.733Z, 57.13
2023-02-05T05:27:50.788Z, 53.08
2023-02-05T05:28:50.741Z, 48.51
2023-02-05T05:29:50.803Z, 45.50
2023-02-05T05:30:50.866Z, 44.01
2023-02-05T05:31:50.810Z, 42.82
2023-02-05T05:32:50.784Z, 41.88
2023-02-05T05:33:50.793Z, 41.14
2023-02-05T05:34:50.876Z, 40.66
2023-02-05T05:35:50.853Z, 40.31
2023-02-05T05:36:50.862Z, 40.03
2023-02-05T05:37:50.889Z, 39.79
2023-02-05T05:38:50.872Z, 39.58
2023-02-05T05:39:50.923Z, 39.38
2023-02-05T05:40:50.921Z, 39.16
2023-02-05T05:41:50.919Z, 38.97
2023-02-05T05:42:50.996Z, 38.79
2023-02-05T05:43:50.974Z, 38.60
2023-02-05T05:44:50.984Z, 38.39
2023-02-05T05:45:50.985Z, 38.19
2023-02-05T05:46:50.955Z, 38.01
2023-02-05T05:47:50.959Z, 37.76
2023-02-05T05:48:51.034Z, 37.79
2023-02-05T05:49:51.036Z, 42.57
2023-02-05T05:50:51.039Z, 48.57
2023-02-05T05:51:51.037Z, 51.32
2023-02-05T05:52:55.442Z, 50.33
2023-02-05T05:53:51.036Z, 49.10
2023-02-05T05:54:51.066Z, 48.42
2023-02-05T05:55:51.079Z, 47.74
2023-02-05T05:56:51.089Z, 47.01
2023-02-05T05:57:51.081Z, 46.36
2023-02-05T05:58:51.091Z, 45.71
2023-02-05T05:59:51.126Z, 44.86
2023-02-05T06:00:51.103Z, 44.01
2023-02-05T06:01:51.084Z, 42.32
2023-02-05T06:02:51.120Z, 40.65
2023-02-05T06:03:51.112Z, 42.90
2023-02-05T06:04:51.146Z, 46.71
2023-02-05T06:05:51.128Z, 49.70
2023-02-05T06:06:51.148Z, 52.58
2023-02-05T06:07:51.156Z, 53.87
2023-02-05T06:08:51.187Z, 53.32
2023-02-05T06:09:51.184Z, 52.18
2023-02-05T06:10:51.191Z, 50.90
2023-02-05T06:11:51.250Z, 49.49
2023-02-05T06:12:51.225Z, 48.01
2023-02-05T06:13:51.222Z, 46.58
2023-02-05T06:14:51.307Z, 45.19
2023-02-05T06:15:51.286Z, 43.99
2023-02-05T06:16:51.277Z, 44.21
2023-02-05T06:17:51.271Z, 44.17
2023-02-05T06:18:51.317Z, 44.00
2023-02-05T06:19:51.294Z, 43.86
2023-02-05T06:20:51.314Z, 43.72
2023-02-05T06:21:51.360Z, 43.55
2023-02-05T06:22:51.386Z, 43.39
2023-02-05T06:23:51.437Z, 43.24
2023-02-05T06:24:51.467Z, 43.08
2023-02-05T06:25:51.457Z, 42.92
2023-02-05T06:26:51.510Z, 42.78
2023-02-05T06:27:51.494Z, 42.63
2023-02-05T06:28:51.492Z, 42.48
2023-02-05T06:29:51.456Z, 42.33
2023-02-05T06:30:51.556Z, 42.14
2023-02-05T06:31:51.607Z, 41.98
2023-02-05T06:32:51.446Z, 41.82
2023-02-05T06:33:51.459Z, 41.66
2023-02-05T06:34:51.468Z, 41.52
2023-02-05T06:35:51.462Z, 41.39
2023-02-05T06:36:51.478Z, 41.25
2023-02-05T06:37:51.566Z, 41.09
2023-02-05T06:38:51.543Z, 40.95
2023-02-05T06:39:51.572Z, 40.82
2023-02-05T06:40:51.597Z, 40.67
2023-02-05T06:41:51.589Z, 40.54
2023-02-05T06:42:51.588Z, 40.38
2023-02-05T06:43:51.649Z, 40.24
2023-02-05T06:44:51.644Z, 40.13
2023-02-05T06:45:51.669Z, 40.02
2023-02-05T06:46:51.647Z, 39.90
2023-02-05T06:47:51.710Z, 39.76
2023-02-05T06:48:51.667Z, 39.60
2023-02-05T06:49:51.727Z, 39.48
2023-02-05T06:50:51.727Z, 39.38
2023-02-05T06:51:51.730Z, 39.26
2023-02-05T06:52:51.713Z, 39.15
2023-02-05T06:53:51.742Z, 39.06
2023-02-05T06:54:51.712Z, 38.92
2023-02-05T06:55:51.712Z, 38.83
2023-02-05T06:56:51.793Z, 38.74
2023-02-05T06:57:51.759Z, 38.64
2023-02-05T06:58:51.786Z, 38.51
2023-02-05T06:59:51.788Z, 38.42
2023-02-05T07:00:51.822Z, 38.32
2023-02-05T07:01:51.819Z, 38.25
2023-02-05T07:02:51.894Z, 38.12
2023-02-05T07:03:51.833Z, 38.02
2023-02-05T07:04:51.861Z, 37.92
2023-02-05T07:05:51.891Z, 37.87
2023-02-05T07:06:51.894Z, 37.74
2023-02-05T07:07:51.871Z, 37.66
2023-02-05T07:08:51.867Z, 37.59
2023-02-05T07:09:51.883Z, 37.50
2023-02-05T07:10:51.873Z, 37.43
2023-02-05T07:11:51.874Z, 37.36
2023-02-05T07:12:51.876Z, 37.27
2023-02-05T07:13:51.891Z, 37.20
2023-02-05T07:14:51.920Z, 37.10
2023-02-05T07:15:51.981Z, 37.01
2023-02-05T07:16:51.940Z, 36.93
2023-02-05T07:17:51.935Z, 36.85
2023-02-05T07:18:51.956Z, 36.78
2023-02-05T07:19:51.977Z, 36.73
2023-02-05T07:20:52.090Z, 36.66
2023-02-05T07:21:52.065Z, 36.59
2023-02-05T07:22:52.049Z, 36.51
2023-02-05T07:23:52.046Z, 36.45
2023-02-05T07:24:52.053Z, 36.41
2023-02-05T07:25:52.076Z, 36.29
2023-02-05T07:26:52.056Z, 36.25
2023-02-05T07:27:52.182Z, 36.22
2023-02-05T07:28:52.157Z, 36.14
2023-02-05T07:29:52.125Z, 36.07
2023-02-05T07:30:52.177Z, 35.97
2023-02-05T07:31:52.354Z, 35.93
2023-02-05T07:32:52.187Z, 35.87
2023-02-05T07:33:52.209Z, 35.79
2023-02-05T07:34:52.186Z, 35.72
2023-02-05T07:35:52.185Z, 35.66
2023-02-05T07:36:52.192Z, 35.61
2023-02-05T07:37:52.242Z, 35.56
2023-02-05T07:38:52.255Z, 35.50
2023-02-05T07:39:52.251Z, 35.44
2023-02-05T07:40:52.306Z, 35.38
2023-02-05T07:41:52.295Z, 35.33
2023-02-05T07:42:52.261Z, 35.27
2023-02-05T07:43:52.278Z, 35.24
2023-02-05T07:44:52.294Z, 35.23
2023-02-05T07:45:52.303Z, 35.17
2023-02-05T07:46:52.336Z, 35.12
2023-02-05T07:47:52.310Z, 35.05
2023-02-05T07:48:52.320Z, 35.04
2023-02-05T07:49:52.347Z, 34.99
2023-02-05T07:50:52.351Z, 34.93
2023-02-05T07:51:52.351Z, 34.87
2023-02-05T07:52:52.332Z, 34.78
2023-02-05T07:53:52.335Z, 34.74
2023-02-05T07:54:52.365Z, 34.70
2023-02-05T07:55:52.367Z, 34.67
2023-02-05T07:56:52.377Z, 34.63
2023-02-05T07:57:52.454Z, 34.56
2023-02-05T07:58:52.452Z, 34.54
2023-02-05T07:59:52.440Z, 34.49
2023-02-05T08:00:52.483Z, 34.45
2023-02-05T08:01:52.439Z, 34.42
2023-02-05T08:02:52.457Z, 34.41
2023-02-05T08:03:52.568Z, 34.36
2023-02-05T08:04:52.485Z, 34.32
2023-02-05T08:05:52.494Z, 34.27
2023-02-05T08:06:52.513Z, 34.26
2023-02-05T08:07:52.514Z, 34.19
2023-02-05T08:08:52.608Z, 34.16
2023-02-05T08:09:52.540Z, 34.13
2023-02-05T08:10:52.579Z, 34.12
2023-02-05T08:11:52.662Z, 34.08
2023-02-05T08:12:52.597Z, 34.05
2023-02-05T08:13:52.599Z, 34.02
2023-02-05T08:14:52.617Z, 34.01
2023-02-05T08:15:52.679Z, 33.97
2023-02-05T08:16:52.633Z, 33.98
2023-02-05T08:17:52.635Z, 33.90
2023-02-05T08:18:52.696Z, 33.86
2023-02-05T08:19:52.720Z, 33.84
2023-02-05T08:20:55.638Z, 33.80
2023-02-05T08:21:52.688Z, 33.77
2023-02-05T08:22:52.687Z, 33.73
2023-02-05T08:23:52.757Z, 33.68
2023-02-05T08:24:52.722Z, 33.62
2023-02-05T08:25:52.735Z, 33.60
2023-02-05T08:26:52.752Z, 33.58
2023-02-05T08:27:52.821Z, 33.55
2023-02-05T08:28:52.847Z, 33.54
2023-02-05T08:29:52.786Z, 33.50
2023-02-05T08:30:52.900Z, 33.45
2023-02-05T08:31:52.855Z, 33.43
2023-02-05T08:32:52.850Z, 33.38
2023-02-05T08:33:52.925Z, 33.38
2023-02-05T08:34:52.892Z, 33.36
2023-02-05T08:35:52.904Z, 33.32
2023-02-05T08:36:52.918Z, 33.31
2023-02-05T08:37:52.890Z, 33.28
2023-02-05T08:38:52.893Z, 33.23
2023-02-05T08:39:52.894Z, 33.20
2023-02-05T08:40:52.907Z, 33.19
2023-02-05T08:41:53.715Z, 33.16
2023-02-05T08:42:52.950Z, 33.13
2023-02-05T08:43:52.971Z, 33.10
2023-02-05T08:44:53.002Z, 33.06
2023-02-05T08:45:53.019Z, 33.06
2023-02-05T08:46:52.992Z, 32.99
2023-02-05T08:47:53.027Z, 33.00
2023-02-05T08:48:53.035Z, 32.98
2023-02-05T08:49:53.045Z, 32.95
2023-02-05T08:50:53.041Z, 32.91
2023-02-05T08:51:53.043Z, 32.86
2023-02-05T08:52:53.148Z, 32.86
2023-02-05T08:53:53.120Z, 32.85
2023-02-05T08:54:53.116Z, 32.83
2023-02-05T08:55:53.137Z, 32.82
2023-02-05T08:56:53.148Z, 32.79
2023-02-05T08:57:53.162Z, 32.74
2023-02-05T08:58:53.181Z, 32.72
2023-02-05T08:59:53.259Z, 32.71
2023-02-05T09:00:53.298Z, 32.71
2023-02-05T09:01:53.238Z, 32.69
2023-02-05T09:02:53.235Z, 32.66
2023-02-05T09:03:53.232Z, 32.64
2023-02-05T09:05:01.886Z, 32.63
2023-02-05T09:05:53.306Z, 32.59
2023-02-05T09:06:53.302Z, 32.53
2023-02-05T09:07:53.359Z, 32.46
2023-02-05T09:08:53.369Z, 32.43
2023-02-05T09:09:53.381Z, 32.42
2023-02-05T09:10:53.354Z, 32.41
2023-02-05T09:11:53.365Z, 32.40
2023-02-05T09:12:53.362Z, 32.37
2023-02-05T09:13:53.403Z, 32.38
2023-02-05T09:14:53.392Z, 32.36
2023-02-05T09:15:53.404Z, 32.37
2023-02-05T09:16:53.476Z, 32.32
2023-02-05T09:17:53.481Z, 32.34
2023-02-05T09:18:53.493Z, 32.27
2023-02-05T09:19:53.518Z, 32.26
2023-02-05T09:20:53.522Z, 32.22
2023-02-05T09:21:54.319Z, 32.25
2023-02-05T09:22:53.542Z, 32.23
2023-02-05T09:23:53.520Z, 32.20
2023-02-05T09:24:53.528Z, 32.17
2023-02-05T09:25:53.574Z, 32.13
2023-02-05T09:26:53.555Z, 32.11
2023-02-05T09:27:53.630Z, 32.14
2023-02-05T09:28:53.584Z, 32.14
2023-02-05T09:29:53.561Z, 32.08
2023-02-05T09:30:55.809Z, 32.07
2023-02-05T09:31:53.592Z, 32.05
2023-02-05T09:32:53.647Z, 32.05
2023-02-05T09:33:53.636Z, 32.01
2023-02-05T09:34:53.671Z, 32.02
2023-02-05T09:35:53.670Z, 32.02
2023-02-05T09:36:53.713Z, 31.97
2023-02-05T09:37:53.687Z, 31.94
2023-02-05T09:39:01.970Z, 31.93
2023-02-05T09:40:19.985Z, 31.86
2023-02-05T09:40:53.776Z, 31.86
2023-02-05T09:41:53.745Z, 31.87
2023-02-05T09:42:53.842Z, 31.86
2023-02-05T09:43:53.742Z, 31.81
2023-02-05T09:44:53.758Z, 31.80
2023-02-05T09:45:53.801Z, 31.79
2023-02-05T09:46:53.803Z, 31.79
2023-02-05T09:47:53.821Z, 31.78
2023-02-05T09:48:53.813Z, 32.71
2023-02-05T09:49:53.882Z, 33.73
2023-02-05T09:50:53.859Z, 39.20
2023-02-05T09:51:53.858Z, 42.96
2023-02-05T09:52:53.865Z, 45.88
2023-02-05T09:53:53.887Z, 48.26
2023-02-05T09:54:53.895Z, 49.49
2023-02-05T09:55:53.968Z, 50.31
2023-02-05T09:56:53.978Z, 49.26
2023-02-05T09:57:53.984Z, 45.70
2023-02-05T09:58:53.984Z, 41.36
2023-02-05T09:59:54.013Z, 36.69
2023-02-05T10:00:53.983Z, 31.24
2023-02-05T10:01:53.982Z, 27.94
2023-02-05T10:02:53.986Z, 30.62
2023-02-05T10:03:53.976Z, 34.98
2023-02-05T10:04:53.996Z, 38.51
2023-02-05T10:05:54.068Z, 41.01
2023-02-05T10:06:54.073Z, 42.75
2023-02-05T10:07:54.066Z, 44.14
2023-02-05T10:08:54.051Z, 45.33
2023-02-05T10:09:54.131Z, 46.28
2023-02-05T10:10:54.089Z, 47.24
2023-02-05T10:11:54.111Z, 48.64
2023-02-05T10:12:54.092Z, 50.38
2023-02-05T10:13:54.092Z, 52.40
2023-02-05T10:14:54.092Z, 52.32
2023-02-05T10:15:54.128Z, 49.89
2023-02-05T10:16:54.172Z, 47.66
2023-02-05T10:17:54.152Z, 45.50
2023-02-05T10:18:54.197Z, 43.57
2023-02-05T10:19:54.194Z, 41.98
2023-02-05T10:20:54.231Z, 40.39
2023-02-05T10:21:54.202Z, 38.25
2023-02-05T10:22:54.227Z, 36.02
2023-02-05T10:23:54.201Z, 35.69
2023-02-05T10:24:54.230Z, 41.09
2023-02-05T10:25:54.212Z, 46.56
2023-02-05T10:26:54.244Z, 50.11
2023-02-05T10:27:54.357Z, 52.49
2023-02-05T10:28:54.269Z, 52.89
2023-02-05T10:29:54.345Z, 51.86
2023-02-05T10:30:54.401Z, 50.48
2023-02-05T10:31:54.441Z, 49.01
2023-02-05T10:32:54.357Z, 47.71
2023-02-05T10:33:54.341Z, 46.38
2023-02-05T10:34:54.351Z, 45.21
2023-02-05T10:35:54.370Z, 44.22
2023-02-05T10:36:54.376Z, 43.31
2023-02-05T10:37:54.432Z, 42.33
2023-02-05T10:38:54.427Z, 41.21
2023-02-05T10:39:54.386Z, 39.90
2023-02-05T10:40:54.453Z, 38.25
2023-02-05T10:41:54.419Z, 36.90
2023-02-05T10:42:54.409Z, 36.32
2023-02-05T10:43:54.426Z, 36.82
2023-02-05T10:44:54.425Z, 41.89
2023-02-05T10:45:54.431Z, 47.12
2023-02-05T10:46:54.446Z, 50.72
2023-02-05T10:47:54.470Z, 52.84
2023-02-05T10:48:54.469Z, 52.03
2023-02-05T10:49:55.374Z, 50.20
2023-02-05T10:50:54.504Z, 48.27
2023-02-05T10:51:54.507Z, 46.44
2023-02-05T10:52:54.574Z, 44.90
2023-02-05T10:53:54.545Z, 43.43
2023-02-05T10:54:54.555Z, 41.87
2023-02-05T10:55:54.550Z, 39.93
2023-02-05T10:56:54.556Z, 37.59
2023-02-05T10:57:54.558Z, 35.33
2023-02-05T10:58:54.572Z, 35.35
2023-02-05T10:59:54.591Z, 40.71
2023-02-05T11:00:54.659Z, 46.01
2023-02-05T11:01:54.696Z, 50.10
2023-02-05T11:02:54.681Z, 52.92
2023-02-05T11:03:54.646Z, 53.76
2023-02-05T11:04:54.715Z, 53.02
2023-02-05T11:05:54.701Z, 51.73
2023-02-05T11:06:54.676Z, 50.33
2023-02-05T11:07:54.687Z, 48.84
2023-02-05T11:08:54.676Z, 47.38
2023-02-05T11:09:54.751Z, 46.11
2023-02-05T11:10:54.737Z, 45.08
2023-02-05T11:11:54.722Z, 44.13
2023-02-05T11:12:54.728Z, 43.24
2023-02-05T11:13:54.725Z, 42.24
2023-02-05T11:14:54.763Z, 41.25
2023-02-05T11:15:54.775Z, 45.57
2023-02-05T11:16:54.748Z, 50.91
2023-02-05T11:17:54.753Z, 53.37
2023-02-05T11:18:54.763Z, 53.33
2023-02-05T11:19:54.763Z, 52.43
2023-02-05T11:20:54.824Z, 51.56
2023-02-05T11:21:54.859Z, 50.64
2023-02-05T11:22:54.861Z, 49.71
2023-02-05T11:23:54.832Z, 48.77
2023-02-05T11:24:54.821Z, 47.86
2023-02-05T11:25:54.834Z, 47.01
2023-02-05T11:26:54.913Z, 46.20
2023-02-05T11:27:56.079Z, 45.39
2023-02-05T11:28:54.924Z, 44.58
2023-02-05T11:29:54.915Z, 43.72
2023-02-05T11:30:55.494Z, 43.30
2023-02-05T11:31:55.057Z, 43.34
2023-02-05T11:32:54.955Z, 43.06
2023-02-05T11:33:54.970Z, 42.77
2023-02-05T11:34:55.004Z, 42.72
2023-02-05T11:35:54.977Z, 42.65
2023-02-05T11:36:55.007Z, 42.55
2023-02-05T11:37:55.004Z, 42.42
2023-02-05T11:38:55.019Z, 42.29
2023-02-05T11:39:55.016Z, 42.18
2023-02-05T11:40:55.042Z, 42.05
2023-02-05T11:41:55.023Z, 41.90
2023-02-05T11:42:55.017Z, 41.75
2023-02-05T11:43:55.041Z, 41.64
2023-02-05T11:44:55.029Z, 41.51
2023-02-05T11:45:55.027Z, 41.31
2023-02-05T11:46:55.108Z, 41.36
2023-02-05T11:47:55.219Z, 44.03
2023-02-05T11:48:55.090Z, 47.36
2023-02-05T11:49:55.093Z, 51.63
2023-02-05T11:50:55.171Z, 55.38
2023-02-05T11:51:55.179Z, 59.76
2023-02-05T11:52:55.150Z, 69.63
2023-02-05T11:53:55.159Z, 55.27
2023-02-05T11:54:55.192Z, 53.29
2023-02-05T11:55:55.190Z, 54.60
2023-02-05T11:56:55.215Z, 55.75
2023-02-05T11:57:55.188Z, 58.26
2023-02-05T11:58:55.200Z, 61.56
2023-02-05T11:59:55.215Z, 65.30
2023-02-05T12:00:55.225Z, 53.16
2023-02-05T12:01:55.271Z, 53.68
2023-02-05T12:02:55.301Z, 55.01
2023-02-05T12:03:55.247Z, 56.19
2023-02-05T12:04:55.400Z, 56.76
2023-02-05T12:05:55.376Z, 57.29
2023-02-05T12:06:55.375Z, 57.55
2023-02-05T12:07:55.376Z, 57.77
2023-02-05T12:08:55.375Z, 57.82
2023-02-05T12:09:55.374Z, 57.89
2023-02-05T12:10:55.380Z, 57.83
2023-02-05T12:11:55.440Z, 57.79
2023-02-05T12:12:55.419Z, 57.75
2023-02-05T12:13:55.413Z, 57.60
2023-02-05T12:14:55.429Z, 57.55
2023-02-05T12:15:55.469Z, 57.45
2023-02-05T12:16:55.469Z, 57.32
2023-02-05T12:17:55.507Z, 57.17
2023-02-05T12:18:55.496Z, 57.07
2023-02-05T12:19:55.513Z, 56.89
2023-02-05T12:20:55.487Z, 56.74
2023-02-05T12:21:55.549Z, 56.57
2023-02-05T12:22:55.531Z, 56.47
2023-02-05T12:23:55.514Z, 56.35
2023-02-05T12:24:55.513Z, 56.15
2023-02-05T12:25:55.510Z, 56.07
2023-02-05T12:26:55.522Z, 55.89
2023-02-05T12:27:55.560Z, 55.73
2023-02-05T12:28:55.526Z, 55.55